createdAt,value
2018-06-11T00:01:31.622Z,97.80
2018-06-11T00:04:00.900Z,98.10
2018-06-11T00:06:30.125Z,98.20
2018-06-11T00:08:59.392Z,98.70
2018-06-11T00:11:28.589Z,98.20
2018-06-11T00:13:57.814Z,97.60
2018-06-11T00:16:27.070Z,97.50
2018-06-11T00:18:56.306Z,97.70
2018-06-11T00:21:25.551Z,98.20
2018-06-11T00:23:54.805Z,99.00
2018-06-11T00:26:24.048Z,99.40
2018-06-11T00:28:53.309Z,99.30
2018-06-11T00:31:22.553Z,99.80
2018-06-11T00:33:51.792Z,99.70
2018-06-11T00:36:21.053Z,99.50
2018-06-11T00:38:50.284Z,99.10
2018-06-11T00:41:19.534Z,99.70
2018-06-11T00:43:48.787Z,99.30
2018-06-11T00:46:17.997Z,99.20
2018-06-11T00:48:48.374Z,99.30
2018-06-11T00:51:17.610Z,99.60
2018-06-11T00:53:46.859Z,99.40
2018-06-11T00:56:16.122Z,99.10
2018-06-11T00:58:45.451Z,98.70
2018-06-11T01:01:14.692Z,98.80
2018-06-11T01:03:43.942Z,98.80
2018-06-11T01:06:13.164Z,99.00
2018-06-11T01:08:42.379Z,98.80
2018-06-11T01:11:18.298Z,98.40
2018-06-11T01:13:47.588Z,99.20
2018-06-11T01:16:16.911Z,98.30
2018-06-11T01:18:46.748Z,98.50
2018-06-11T01:21:16.003Z,97.90
2018-06-11T01:23:45.219Z,97.60
2018-06-11T01:26:14.479Z,97.90
2018-06-11T01:28:44.491Z,97.30
2018-06-11T01:31:13.718Z,97.50
2018-06-11T01:33:42.962Z,97.40
2018-06-11T01:36:12.216Z,97.30
2018-06-11T01:38:41.470Z,97.10
2018-06-11T01:41:10.705Z,96.90
2018-06-11T01:43:39.959Z,97.10
2018-06-11T01:46:09.180Z,97.40
2018-06-11T01:48:38.438Z,97.60
2018-06-11T01:51:07.822Z,96.60
2018-06-11T01:53:37.030Z,97.00
2018-06-11T01:56:06.411Z,97.30
2018-06-11T01:58:35.645Z,97.40
2018-06-11T02:01:04.908Z,96.90
2018-06-11T02:03:34.162Z,97.50
2018-06-11T02:06:03.408Z,97.60
2018-06-11T02:08:32.611Z,97.50
2018-06-11T02:11:01.858Z,97.40
2018-06-11T02:13:31.141Z,97.10
2018-06-11T02:16:00.408Z,97.70
2018-06-11T02:18:29.662Z,96.90
2018-06-11T02:20:58.886Z,97.00
2018-06-11T02:23:28.111Z,96.70
2018-06-11T02:25:58.138Z,97.00
2018-06-11T02:28:27.331Z,96.60
2018-06-11T02:30:56.561Z,96.30
2018-06-11T02:33:25.914Z,96.70
2018-06-11T02:35:55.177Z,96.50
2018-06-11T02:38:24.384Z,96.20
2018-06-11T02:40:53.615Z,96.50
2018-06-11T02:43:22.919Z,96.40
2018-06-11T02:45:52.192Z,96.50
2018-06-11T02:48:21.452Z,96.20
2018-06-11T02:50:50.674Z,96.60
2018-06-11T02:53:19.870Z,96.30
2018-06-11T02:55:49.104Z,96.60
2018-06-11T02:58:18.395Z,96.90
2018-06-11T03:00:47.763Z,97.00
2018-06-11T03:03:16.962Z,96.90
2018-06-11T03:05:46.184Z,97.60
2018-06-11T03:08:15.391Z,97.30
2018-06-11T03:10:44.647Z,96.90
2018-06-11T03:13:13.904Z,97.00
2018-06-11T03:15:43.171Z,97.10
2018-06-11T03:18:12.432Z,97.50
2018-06-11T03:20:41.708Z,97.20
2018-06-11T03:23:10.903Z,97.60
2018-06-11T03:25:40.188Z,97.20
2018-06-11T03:28:09.439Z,97.30
2018-06-11T03:30:38.668Z,97.00
2018-06-11T03:33:07.951Z,97.30
2018-06-11T03:35:37.183Z,96.80
2018-06-11T03:38:06.454Z,97.20
2018-06-11T03:40:35.687Z,97.50
2018-06-11T03:43:04.950Z,97.70
2018-06-11T03:45:34.163Z,97.70
2018-06-11T03:48:03.463Z,97.60
2018-06-11T03:50:32.699Z,97.70
2018-06-11T03:53:01.949Z,97.50
2018-06-11T03:55:31.176Z,97.30
2018-06-11T03:58:00.720Z,97.30
2018-06-11T04:00:30.030Z,97.60
2018-06-11T04:02:59.283Z,97.80
2018-06-11T04:05:28.575Z,97.40
2018-06-11T04:07:57.847Z,97.30
2018-06-11T04:12:55.928Z,96.80
2018-06-11T04:15:25.299Z,96.60
2018-06-11T04:17:54.522Z,96.50
2018-06-11T04:20:23.746Z,96.40
2018-06-11T04:22:53.031Z,96.80
2018-06-11T04:25:22.334Z,96.60
2018-06-11T04:27:51.533Z,96.30
2018-06-11T04:30:20.759Z,97.00
2018-06-11T04:32:49.987Z,97.10
2018-06-11T04:35:19.232Z,97.20
2018-06-11T04:37:48.474Z,96.80
2018-06-11T04:40:17.755Z,96.60
2018-06-11T04:42:46.958Z,96.50
2018-06-11T04:45:16.833Z,96.20
2018-06-11T04:47:46.031Z,96.30
2018-06-11T04:50:15.262Z,95.90
2018-06-11T04:52:44.484Z,95.80
2018-06-11T04:55:13.755Z,96.10
2018-06-11T04:57:43.011Z,95.50
2018-06-11T05:00:12.258Z,95.40
2018-06-11T05:02:41.527Z,95.30
2018-06-11T05:05:10.803Z,95.60
2018-06-11T05:07:40.117Z,95.90
2018-06-11T05:10:09.336Z,95.60
2018-06-11T05:12:38.599Z,95.40
2018-06-11T05:15:07.840Z,95.00
2018-06-11T05:17:37.065Z,95.00
2018-06-11T05:20:06.427Z,95.20
2018-06-11T05:22:35.669Z,95.20
2018-06-11T05:25:05.111Z,95.80
2018-06-11T05:27:34.377Z,95.50
2018-06-11T05:30:03.687Z,95.20
2018-06-11T05:32:33.006Z,95.10
2018-06-11T05:35:02.293Z,94.90
2018-06-11T05:37:31.558Z,94.20
2018-06-11T05:40:02.956Z,93.90
2018-06-11T05:42:32.323Z,92.50
2018-06-11T05:45:01.616Z,92.20
2018-06-11T05:47:30.854Z,92.90
2018-06-11T05:50:00.116Z,92.60
2018-06-11T05:52:29.356Z,92.40
2018-06-11T05:54:58.625Z,91.90
2018-06-11T05:57:27.874Z,92.00
2018-06-11T05:59:57.142Z,91.30
2018-06-11T06:02:26.374Z,90.60
2018-06-11T06:04:55.661Z,91.10
2018-06-11T06:07:24.924Z,90.60
2018-06-11T06:09:54.163Z,91.00
2018-06-11T06:12:23.423Z,90.20
2018-06-11T06:14:52.672Z,90.60
2018-06-11T06:17:22.661Z,90.40
2018-06-11T06:19:51.984Z,90.20
2018-06-11T06:22:21.236Z,90.90
2018-06-11T06:24:50.457Z,90.70
2018-06-11T06:27:19.749Z,90.90
2018-06-11T06:29:49.012Z,90.80
2018-06-11T06:32:18.275Z,90.60
2018-06-11T06:34:47.546Z,90.10
2018-06-11T06:37:16.762Z,90.50
2018-06-11T06:39:46.049Z,89.70
2018-06-11T06:42:15.246Z,88.10
2018-06-11T06:44:44.560Z,85.20
2018-06-11T06:47:13.822Z,85.20
2018-06-11T06:49:43.059Z,85.80
2018-06-11T06:52:12.347Z,84.80
2018-06-11T06:54:41.572Z,83.80
2018-06-11T06:57:10.828Z,86.00
2018-06-11T06:59:40.052Z,86.40
2018-06-11T07:02:09.303Z,88.00
2018-06-11T07:04:38.513Z,87.90
2018-06-11T07:07:07.778Z,89.10
2018-06-11T07:09:37.108Z,88.60
2018-06-11T07:12:06.338Z,87.70
2018-06-11T07:14:35.625Z,87.50
2018-06-11T07:17:04.932Z,86.30
2018-06-11T07:19:34.175Z,85.40
2018-06-11T07:22:03.467Z,85.00
2018-06-11T07:24:32.742Z,85.50
2018-06-11T07:27:02.036Z,84.90
2018-06-11T07:29:31.295Z,86.30
2018-06-11T07:32:00.523Z,86.90
2018-06-11T07:34:29.732Z,87.50
2018-06-11T07:36:58.999Z,88.20
2018-06-11T07:39:28.263Z,87.00
2018-06-11T07:41:57.489Z,85.10
2018-06-11T07:46:55.534Z,85.50
2018-06-11T07:49:24.779Z,85.30
2018-06-11T07:51:53.983Z,85.60
2018-06-11T07:54:23.219Z,86.00
2018-06-11T07:56:52.482Z,84.40
2018-06-11T07:59:21.741Z,84.70
2018-06-11T08:01:50.997Z,83.80
2018-06-11T08:04:20.236Z,81.40
2018-06-11T08:06:49.464Z,84.00
2018-06-11T08:09:18.716Z,83.80
2018-06-11T08:11:47.955Z,83.10
2018-06-11T08:19:14.751Z,81.30
2018-06-11T08:21:44.191Z,81.60
2018-06-11T08:24:13.383Z,81.40
2018-06-11T08:26:42.605Z,82.70
2018-06-11T08:29:12.039Z,81.50
2018-06-11T08:31:41.259Z,82.30
2018-06-11T08:34:10.483Z,83.70
2018-06-11T08:36:39.759Z,82.60
2018-06-11T08:39:09.448Z,83.80
2018-06-11T08:41:38.727Z,82.80
2018-06-11T08:44:07.937Z,85.30
2018-06-11T08:49:06.011Z,87.30
2018-06-11T08:51:35.249Z,85.80
2018-06-11T08:54:04.568Z,89.10
2018-06-11T08:56:33.799Z,89.70
2018-06-11T08:59:03.938Z,90.40
2018-06-11T09:01:33.212Z,90.00
2018-06-11T09:04:02.443Z,90.30
2018-06-11T09:06:31.746Z,90.30
2018-06-11T09:09:00.972Z,89.40
2018-06-11T09:11:30.213Z,90.40
2018-06-11T09:13:59.458Z,91.10
2018-06-11T09:16:28.743Z,90.50
2018-06-11T09:18:57.949Z,90.20
2018-06-11T09:21:27.164Z,89.50
2018-06-11T09:23:56.480Z,90.00
2018-06-11T09:26:25.763Z,88.10
2018-06-11T09:28:54.995Z,87.60
2018-06-11T09:31:24.240Z,87.00
2018-06-11T09:33:53.538Z,88.50
2018-06-11T09:36:22.800Z,88.90
2018-06-11T09:38:52.099Z,89.80
2018-06-11T09:43:50.163Z,88.90
2018-06-11T09:46:19.371Z,87.90
2018-06-11T09:48:48.627Z,86.80
2018-06-11T09:51:17.873Z,85.90
2018-06-11T09:53:47.127Z,84.50
2018-06-11T09:56:16.367Z,83.60
2018-06-11T09:58:45.597Z,84.10
2018-06-11T10:01:14.864Z,81.00
2018-06-11T10:03:44.227Z,80.00
2018-06-11T10:06:13.373Z,80.40
2018-06-11T10:08:42.659Z,80.40
2018-06-11T10:11:11.897Z,80.60
2018-06-11T10:13:41.240Z,79.50
2018-06-11T10:16:10.475Z,80.10
2018-06-11T10:18:39.708Z,79.90
2018-06-11T10:21:08.956Z,80.40
2018-06-11T10:23:38.198Z,77.70
2018-06-11T10:26:07.479Z,78.40
2018-06-11T10:28:36.710Z,79.80
2018-06-11T10:31:05.952Z,80.10
2018-06-11T10:33:35.215Z,79.10
2018-06-11T10:36:04.451Z,79.10
2018-06-11T10:38:33.687Z,79.50
2018-06-11T10:41:02.927Z,79.70
2018-06-11T10:43:32.251Z,79.70
2018-06-11T10:48:30.596Z,78.30
2018-06-11T10:50:59.928Z,79.80
2018-06-11T10:53:29.146Z,78.40
2018-06-11T10:55:58.409Z,77.50
2018-06-11T10:58:27.607Z,77.50
2018-06-11T11:00:56.895Z,75.50
2018-06-11T11:03:26.234Z,77.60
2018-06-11T11:05:55.546Z,79.80
2018-06-11T11:11:00.250Z,75.60
2018-06-11T11:13:29.478Z,74.10
2018-06-11T11:15:58.771Z,74.70
2018-06-11T11:18:27.987Z,75.10
2018-06-11T11:20:57.341Z,76.00
2018-06-11T11:23:26.674Z,74.70
2018-06-11T11:25:56.062Z,75.80
2018-06-11T11:28:25.329Z,74.80
2018-06-11T11:30:54.593Z,74.70
2018-06-11T11:33:24.338Z,72.10
2018-06-11T11:35:55.048Z,72.90
2018-06-11T11:38:24.384Z,74.10
2018-06-11T11:40:54.907Z,73.60
2018-06-11T11:43:24.732Z,76.00
2018-06-11T11:45:54.067Z,71.60
2018-06-11T11:48:23.707Z,70.80
2018-06-11T11:50:53.689Z,70.40
2018-06-11T11:53:22.953Z,72.60
2018-06-11T11:55:52.963Z,72.20
2018-06-11T11:58:22.230Z,73.50
2018-06-11T12:00:52.310Z,73.20
2018-06-11T12:03:21.600Z,73.20
2018-06-11T12:05:55.659Z,71.50
2018-06-11T12:08:25.526Z,71.80
2018-06-11T12:10:54.847Z,73.00
2018-06-11T12:13:24.214Z,70.00
2018-06-11T12:15:53.629Z,70.50
2018-06-11T12:18:23.437Z,70.90
2018-06-11T12:20:52.762Z,74.60
2018-06-11T12:23:21.990Z,73.20
2018-06-11T12:25:51.320Z,72.50
2018-06-11T12:28:20.628Z,71.00
2018-06-11T12:30:49.929Z,70.90
2018-06-11T12:33:19.200Z,70.20
2018-06-11T12:35:48.519Z,69.50
2018-06-11T12:38:17.810Z,68.20
2018-06-11T12:40:47.420Z,69.30
2018-06-11T12:43:16.719Z,66.40
2018-06-11T12:45:46.015Z,66.20
2018-06-11T12:48:15.408Z,66.50
2018-06-11T12:50:44.640Z,66.10
2018-06-11T12:53:14.856Z,66.10
2018-06-11T12:55:44.057Z,66.40
2018-06-11T13:00:42.139Z,66.20
2018-06-11T13:03:11.356Z,64.80
2018-06-11T13:05:40.608Z,65.10
2018-06-11T13:08:09.815Z,64.20
2018-06-11T13:10:39.142Z,64.70
2018-06-11T13:13:08.399Z,65.30
2018-06-11T13:15:37.632Z,65.10
2018-06-11T13:18:06.895Z,65.00
2018-06-11T13:20:36.125Z,64.80
2018-06-11T13:23:05.559Z,66.50
2018-06-11T13:25:34.789Z,66.10
2018-06-11T13:28:04.084Z,65.80
2018-06-11T13:30:33.407Z,65.70
2018-06-11T13:33:02.595Z,64.90
2018-06-11T13:35:31.831Z,67.50
2018-06-11T13:38:01.092Z,68.10
2018-06-11T13:40:30.318Z,67.60
2018-06-11T13:42:59.577Z,68.10
2018-06-11T13:45:28.820Z,69.80
2018-06-11T13:47:58.038Z,70.30
2018-06-11T13:50:27.276Z,69.40
2018-06-11T13:52:56.567Z,69.40
2018-06-11T13:55:25.807Z,71.70
2018-06-11T13:57:55.060Z,69.00
2018-06-11T14:00:24.276Z,69.70
2018-06-11T14:02:53.614Z,71.50
2018-06-11T14:05:22.913Z,70.90
2018-06-11T14:07:52.123Z,70.80
2018-06-11T14:10:21.356Z,71.00
2018-06-11T14:12:50.569Z,71.30
2018-06-11T14:15:19.827Z,71.60
2018-06-11T14:17:49.111Z,76.20
2018-06-11T14:20:18.365Z,72.70
2018-06-11T14:22:48.021Z,73.70
2018-06-11T14:25:17.342Z,73.70
2018-06-11T14:27:46.581Z,73.00
2018-06-11T14:30:15.803Z,72.90
2018-06-11T14:32:45.087Z,75.70
2018-06-11T14:35:14.327Z,76.90
2018-06-11T14:37:43.643Z,73.90
2018-06-11T14:40:12.931Z,79.20
2018-06-11T14:42:42.195Z,80.20
2018-06-11T14:45:11.423Z,77.10
2018-06-11T14:47:40.653Z,77.00
2018-06-11T14:50:09.915Z,84.10
2018-06-11T14:52:39.199Z,88.00
2018-06-11T14:55:08.523Z,86.40
2018-06-11T14:57:37.756Z,82.30
2018-06-11T15:00:06.957Z,88.90
2018-06-11T15:02:36.176Z,90.60
2018-06-11T15:05:05.474Z,90.60
2018-06-11T15:07:34.715Z,90.10
2018-06-11T15:10:03.979Z,90.70
2018-06-11T15:15:01.991Z,85.90
2018-06-11T15:17:31.258Z,88.90
2018-06-11T15:20:00.632Z,87.40
2018-06-11T15:22:29.910Z,88.00
2018-06-11T15:24:59.247Z,90.50
2018-06-11T15:27:28.468Z,90.50
2018-06-11T15:29:57.719Z,89.70
2018-06-11T15:32:27.019Z,90.80
2018-06-11T15:34:56.261Z,92.70
2018-06-11T15:37:25.616Z,91.80
2018-06-11T15:39:54.851Z,90.50
2018-06-11T15:42:24.427Z,91.00
2018-06-11T15:44:54.468Z,90.50
2018-06-11T15:47:23.780Z,92.30
2018-06-11T15:49:53.122Z,93.20
2018-06-11T15:52:22.403Z,91.10
2018-06-11T15:54:51.751Z,92.40
2018-06-11T15:57:21.062Z,89.60
2018-06-11T15:59:50.359Z,92.90
2018-06-11T16:04:48.453Z,90.50
2018-06-11T16:07:18.032Z,92.90
2018-06-11T16:09:47.274Z,92.20
2018-06-11T16:12:16.615Z,90.80
2018-06-11T16:14:45.915Z,91.70
2018-06-11T16:17:15.210Z,90.20
2018-06-11T16:19:44.471Z,91.80
2018-06-11T16:22:13.764Z,89.60
2018-06-11T16:24:43.034Z,90.80
2018-06-11T16:27:12.387Z,88.80
2018-06-11T16:29:41.751Z,91.30
2018-06-11T16:32:11.059Z,92.50
2018-06-11T16:34:40.420Z,92.90
2018-06-11T16:37:09.791Z,90.70
2018-06-11T16:39:39.078Z,91.70
2018-06-11T16:42:11.302Z,90.50
2018-06-11T16:44:43.055Z,91.40
2018-06-11T16:47:12.351Z,90.60
2018-06-11T16:49:41.589Z,90.40
2018-06-11T16:52:10.858Z,87.50
2018-06-11T16:54:40.179Z,90.70
2018-06-11T16:57:09.456Z,86.50
2018-06-11T16:59:38.774Z,85.30
2018-06-11T17:02:08.077Z,86.80
2018-06-11T17:04:37.401Z,90.50
2018-06-11T17:07:06.705Z,85.70
2018-06-11T17:09:36.016Z,85.90
2018-06-11T17:12:20.207Z,83.60
2018-06-11T17:14:49.446Z,86.60
2018-06-11T17:17:18.756Z,83.20
2018-06-11T17:19:48.068Z,87.00
2018-06-11T17:22:17.351Z,86.90
2018-06-11T17:24:46.830Z,87.20
2018-06-11T17:27:16.285Z,86.70
2018-06-11T17:29:45.576Z,86.00
2018-06-11T17:32:14.879Z,82.60
2018-06-11T17:34:44.539Z,83.30
2018-06-11T17:37:15.022Z,85.10
2018-06-11T17:39:45.653Z,83.20
2018-06-11T17:42:15.064Z,82.00
2018-06-11T17:44:44.371Z,81.60
2018-06-11T17:47:13.732Z,83.20
2018-06-11T17:49:43.151Z,83.80
2018-06-11T17:52:12.522Z,84.10
2018-06-11T17:54:41.866Z,81.60
2018-06-11T17:57:11.124Z,82.10
2018-06-11T17:59:47.099Z,83.90
2018-06-11T18:02:16.386Z,81.10
2018-06-11T18:04:45.715Z,80.80
2018-06-11T18:07:15.007Z,83.10
2018-06-11T18:09:45.285Z,81.90
2018-06-11T18:12:14.643Z,83.60
2018-06-11T18:14:43.982Z,89.30
2018-06-11T18:19:42.088Z,82.00
2018-06-11T18:22:11.427Z,87.00
2018-06-11T18:24:40.766Z,82.80
2018-06-11T18:27:10.039Z,87.90
2018-06-11T18:29:39.362Z,90.50
2018-06-11T18:32:15.337Z,91.90
2018-06-11T18:34:44.669Z,92.70
2018-06-11T18:37:13.997Z,91.70
2018-06-11T18:39:43.385Z,90.20
2018-06-11T18:42:12.687Z,88.90
2018-06-11T18:44:42.139Z,88.30
2018-06-11T18:47:11.534Z,89.30
2018-06-11T18:49:40.980Z,91.90
2018-06-11T18:52:10.244Z,87.50
2018-06-11T18:54:39.601Z,86.90
2018-06-11T18:57:08.902Z,91.30
2018-06-11T18:59:38.929Z,92.10
2018-06-11T19:02:09.925Z,91.90
2018-06-11T19:04:39.474Z,92.60
2018-06-11T19:07:09.625Z,92.30
2018-06-11T19:09:38.902Z,92.00
2018-06-11T19:14:36.983Z,90.80
2018-06-11T19:17:06.339Z,92.40
2018-06-11T19:19:35.700Z,93.80
2018-06-11T19:22:05.027Z,94.00
2018-06-11T19:24:35.720Z,94.10
2018-06-11T19:27:05.151Z,94.00
2018-06-11T19:29:34.536Z,94.70
2018-06-11T19:32:03.896Z,94.20
2018-06-11T19:34:33.226Z,95.60
2018-06-11T19:37:02.589Z,95.10
2018-06-11T19:39:31.919Z,96.10
2018-06-11T19:42:01.195Z,96.90
2018-06-11T19:44:30.527Z,96.20
2018-06-11T19:46:59.834Z,97.00
2018-06-11T19:49:29.148Z,97.20
2018-06-11T19:51:58.589Z,96.80
2018-06-11T19:54:28.579Z,97.00
2018-06-11T19:56:57.900Z,97.90
2018-06-11T19:59:27.456Z,98.50
2018-06-11T20:01:56.740Z,98.70
2018-06-11T20:04:26.079Z,97.50
2018-06-11T20:06:55.368Z,98.10
2018-06-11T20:09:24.712Z,99.40
2018-06-11T20:11:54.737Z,99.60
2018-06-11T20:14:24.120Z,99.70
2018-06-11T20:16:53.825Z,99.90
2018-06-11T20:19:23.261Z,99.90
2018-06-11T20:21:52.570Z,99.20
2018-06-11T20:24:21.876Z,99.20
2018-06-11T20:26:51.187Z,99.90
2018-06-11T20:29:20.491Z,99.90
2018-06-11T20:31:50.586Z,99.90
2018-06-11T20:34:19.946Z,99.90
2018-06-11T20:36:49.246Z,99.90
2018-06-11T20:39:18.524Z,99.90
2018-06-11T20:41:47.842Z,99.90
2018-06-11T20:44:17.145Z,99.90
2018-06-11T20:46:46.409Z,99.90
2018-06-11T20:49:15.712Z,99.90
2018-06-11T20:51:45.005Z,99.90
2018-06-11T20:54:14.398Z,99.90
2018-06-11T20:56:43.676Z,99.90
2018-06-11T20:59:13.027Z,99.90
2018-06-11T21:01:42.372Z,99.90
2018-06-11T21:04:11.674Z,99.90
2018-06-11T21:06:40.888Z,99.90
2018-06-11T21:09:10.169Z,99.90
2018-06-11T21:11:39.474Z,99.90
2018-06-11T21:14:08.736Z,99.60
2018-06-11T21:16:38.578Z,99.60
2018-06-11T21:19:07.851Z,99.60
2018-06-11T21:21:37.087Z,99.00
2018-06-11T21:24:06.418Z,99.00
2018-06-11T21:26:35.690Z,98.90
2018-06-11T21:29:04.937Z,99.00
2018-06-11T21:31:34.227Z,99.70
2018-06-11T21:34:03.537Z,99.30
2018-06-11T21:36:32.851Z,99.60
2018-06-11T21:39:02.203Z,99.70
2018-06-11T21:41:31.441Z,99.90
2018-06-11T21:44:00.828Z,99.80
2018-06-11T21:46:30.276Z,99.50
2018-06-11T21:48:59.572Z,99.10
2018-06-11T21:51:28.878Z,99.80
2018-06-11T21:53:58.162Z,99.90
2018-06-11T21:56:27.485Z,99.90
2018-06-11T21:58:56.828Z,99.90
2018-06-11T22:01:26.166Z,99.40
2018-06-11T22:03:55.549Z,99.50
2018-06-11T22:06:24.744Z,99.90
2018-06-11T22:08:54.081Z,99.90
2018-06-11T22:11:23.316Z,99.90
2018-06-11T22:13:52.601Z,99.90
2018-06-11T22:16:21.931Z,99.90
2018-06-11T22:18:51.212Z,99.90
2018-06-11T22:21:20.453Z,99.90
2018-06-11T22:23:49.728Z,99.90
2018-06-11T22:26:19.153Z,99.90
2018-06-11T22:28:48.399Z,99.90
2018-06-11T22:31:17.663Z,99.90
2018-06-11T22:33:46.883Z,99.90
2018-06-11T22:36:16.139Z,99.90
2018-06-11T22:38:45.464Z,99.90
2018-06-11T22:41:14.803Z,99.90
2018-06-11T22:43:44.063Z,99.90
2018-06-11T22:46:13.344Z,99.90
2018-06-11T22:48:42.603Z,99.90
2018-06-11T22:51:11.999Z,99.90
2018-06-11T22:53:41.207Z,99.90
2018-06-11T22:56:10.465Z,99.90
2018-06-11T22:58:39.722Z,99.90
2018-06-11T23:01:08.999Z,99.90
2018-06-11T23:03:38.271Z,99.90
2018-06-11T23:06:07.580Z,99.90
2018-06-11T23:08:36.812Z,99.90
2018-06-11T23:11:06.035Z,99.90
2018-06-11T23:13:35.312Z,99.90
2018-06-11T23:16:04.538Z,99.90
2018-06-11T23:18:33.763Z,99.90
2018-06-11T23:23:31.757Z,99.90
2018-06-11T23:26:01.023Z,99.90
2018-06-11T23:28:30.212Z,99.90
2018-06-11T23:30:59.469Z,99.90
2018-06-11T23:33:28.712Z,99.90
2018-06-11T23:35:57.997Z,99.90
2018-06-11T23:38:27.234Z,99.90
2018-06-11T23:40:56.538Z,99.90
2018-06-11T23:43:25.839Z,99.90
2018-06-11T23:45:55.131Z,99.90
2018-06-11T23:48:24.349Z,99.90
2018-06-11T23:50:53.635Z,99.90
2018-06-11T23:53:22.863Z,99.90
2018-06-11T23:55:52.135Z,99.90
2018-06-11T23:58:21.343Z,99.90
